sensor_id;sensor_type;location;lat;lon;timestamp;P1;durP1;ratioP1;P2;durP2;ratioP2
21780;SDS011;52576;53.614;9.894;2022-12-29T00:00:48;4.97;;;3.00;;
21780;SDS011;52576;53.614;9.894;2022-12-29T00:01:52;4.00;;;2.80;;
21780;SDS011;52576;53.614;9.894;2022-12-29T00:02:54;5.28;;;3.13;;
21780;SDS011;52576;53.614;9.894;2022-12-29T00:03:58;7.95;;;3.30;;
21780;SDS011;52576;53.614;9.894;2022-12-29T00:05:01;3.40;;;2.88;;
21780;SDS011;52576;53.614;9.894;2022-12-29T00:06:04;6.28;;;2.72;;
21780;SDS011;52576;53.614;9.894;2022-12-29T00:07:07;7.95;;;3.10;;
21780;SDS011;52576;53.614;9.894;2022-12-29T00:08:10;4.38;;;3.00;;
21780;SDS011;52576;53.614;9.894;2022-12-29T00:09:13;4.57;;;3.00;;
21780;SDS011;52576;53.614;9.894;2022-12-29T00:10:16;3.75;;;3.00;;
21780;SDS011;52576;53.614;9.894;2022-12-29T00:11:20;5.28;;;3.05;;
21780;SDS011;52576;53.614;9.894;2022-12-29T00:12:24;4.20;;;2.83;;
21780;SDS011;52576;53.614;9.894;2022-12-29T00:13:26;7.75;;;2.90;;
21780;SDS011;52576;53.614;9.894;2022-12-29T00:14:47;7.85;;;2.70;;
21780;SDS011;52576;53.614;9.894;2022-12-29T00:16:07;7.35;;;2.78;;
21780;SDS011;52576;53.614;9.894;2022-12-29T00:17:10;7.18;;;3.40;;
21780;SDS011;52576;53.614;9.894;2022-12-29T00:18:12;4.53;;;3.00;;
21780;SDS011;52576;53.614;9.894;2022-12-29T00:19:18;3.58;;;2.97;;
21780;SDS011;52576;53.614;9.894;2022-12-29T00:20:40;5.72;;;3.20;;
21780;SDS011;52576;53.614;9.894;2022-12-29T00:22:01;5.95;;;3.00;;
21780;SDS011;52576;53.614;9.894;2022-12-29T00:23:22;3.85;;;3.15;;
21780;SDS011;52576;53.614;9.894;2022-12-29T00:24:46;3.50;;;2.80;;
21780;SDS011;52576;53.614;9.894;2022-12-29T00:26:09;5.25;;;3.05;;
21780;SDS011;52576;53.614;9.894;2022-12-29T00:27:33;3.90;;;2.92;;
21780;SDS011;52576;53.614;9.894;2022-12-29T00:28:54;5.78;;;2.92;;
21780;SDS011;52576;53.614;9.894;2022-12-29T00:30:16;5.18;;;2.90;;
21780;SDS011;52576;53.614;9.894;2022-12-29T00:31:39;4.32;;;2.80;;
21780;SDS011;52576;53.614;9.894;2022-12-29T00:33:00;5.60;;;2.95;;
21780;SDS011;52576;53.614;9.894;2022-12-29T00:34:21;3.85;;;3.03;;
21780;SDS011;52576;53.614;9.894;2022-12-29T00:35:44;7.78;;;3.58;;
21780;SDS011;52576;53.614;9.894;2022-12-29T00:36:53;5.45;;;3.13;;
21780;SDS011;52576;53.614;9.894;2022-12-29T00:37:56;3.63;;;3.00;;
21780;SDS011;52576;53.614;9.894;2022-12-29T00:39:18;5.38;;;3.25;;
21780;SDS011;52576;53.614;9.894;2022-12-29T00:40:39;5.18;;;3.08;;
21780;SDS011;52576;53.614;9.894;2022-12-29T00:42:02;3.35;;;2.92;;
21780;SDS011;52576;53.614;9.894;2022-12-29T00:43:23;5.72;;;3.30;;
21780;SDS011;52576;53.614;9.894;2022-12-29T00:44:44;3.80;;;3.28;;
21780;SDS011;52576;53.614;9.894;2022-12-29T00:45:48;4.88;;;2.95;;
21780;SDS011;52576;53.614;9.894;2022-12-29T00:46:50;4.82;;;3.33;;
21780;SDS011;52576;53.614;9.894;2022-12-29T00:47:53;3.72;;;3.22;;
21780;SDS011;52576;53.614;9.894;2022-12-29T00:48:55;5.55;;;3.45;;
21780;SDS011;52576;53.614;9.894;2022-12-29T00:50:18;5.60;;;2.92;;
21780;SDS011;52576;53.614;9.894;2022-12-29T00:51:23;4.93;;;3.45;;
21780;SDS011;52576;53.614;9.894;2022-12-29T00:52:25;7.78;;;3.50;;
21780;SDS011;52576;53.614;9.894;2022-12-29T00:53:28;4.95;;;3.17;;
21780;SDS011;52576;53.614;9.894;2022-12-29T00:54:31;5.65;;;3.35;;
21780;SDS011;52576;53.614;9.894;2022-12-29T00:55:36;4.82;;;3.17;;
21780;SDS011;52576;53.614;9.894;2022-12-29T00:56:38;7.63;;;3.10;;
21780;SDS011;52576;53.614;9.894;2022-12-29T00:57:42;6.78;;;3.75;;
21780;SDS011;52576;53.614;9.894;2022-12-29T00:58:44;6.75;;;3.20;;
21780;SDS011;52576;53.614;9.894;2022-12-29T00:59:50;6.75;;;3.30;;
21780;SDS011;52576;53.614;9.894;2022-12-29T01:00:54;3.42;;;3.00;;
21780;SDS011;52576;53.614;9.894;2022-12-29T01:02:04;5.72;;;3.00;;
21780;SDS011;52576;53.614;9.894;2022-12-29T01:03:08;7.00;;;3.30;;
21780;SDS011;52576;53.614;9.894;2022-12-29T01:04:11;5.22;;;3.10;;
21780;SDS011;52576;53.614;9.894;2022-12-29T01:05:15;3.92;;;3.15;;
21780;SDS011;52576;53.614;9.894;2022-12-29T01:06:19;7.13;;;3.42;;
21780;SDS011;52576;53.614;9.894;2022-12-29T01:07:24;5.20;;;2.92;;
21780;SDS011;52576;53.614;9.894;2022-12-29T01:08:26;4.53;;;3.03;;
21780;SDS011;52576;53.614;9.894;2022-12-29T01:09:30;4.25;;;3.00;;
21780;SDS011;52576;53.614;9.894;2022-12-29T01:10:57;6.50;;;3.10;;
21780;SDS011;52576;53.614;9.894;2022-12-29T01:12:01;3.83;;;2.75;;
21780;SDS011;52576;53.614;9.894;2022-12-29T01:13:05;5.05;;;3.13;;
21780;SDS011;52576;53.614;9.894;2022-12-29T01:14:07;5.53;;;2.92;;
21780;SDS011;52576;53.614;9.894;2022-12-29T01:15:11;4.20;;;2.97;;
21780;SDS011;52576;53.614;9.894;2022-12-29T01:16:15;4.78;;;3.10;;
21780;SDS011;52576;53.614;9.894;2022-12-29T01:17:18;3.13;;;2.83;;
21780;SDS011;52576;53.614;9.894;2022-12-29T01:18:24;3.47;;;3.08;;
21780;SDS011;52576;53.614;9.894;2022-12-29T01:19:27;3.65;;;2.70;;
21780;SDS011;52576;53.614;9.894;2022-12-29T01:20:30;3.45;;;3.00;;
21780;SDS011;52576;53.614;9.894;2022-12-29T01:21:32;4.88;;;2.88;;
21780;SDS011;52576;53.614;9.894;2022-12-29T01:22:38;2.50;;;2.30;;
21780;SDS011;52576;53.614;9.894;2022-12-29T01:23:40;3.28;;;2.97;;
21780;SDS011;52576;53.614;9.894;2022-12-29T01:24:43;3.00;;;2.60;;
21780;SDS011;52576;53.614;9.894;2022-12-29T01:25:47;5.57;;;2.97;;
21780;SDS011;52576;53.614;9.894;2022-12-29T01:26:50;3.55;;;2.90;;
21780;SDS011;52576;53.614;9.894;2022-12-29T01:27:52;3.78;;;2.70;;
21780;SDS011;52576;53.614;9.894;2022-12-29T01:28:56;4.38;;;3.00;;
21780;SDS011;52576;53.614;9.894;2022-12-29T01:30:02;3.50;;;2.72;;
21780;SDS011;52576;53.614;9.894;2022-12-29T01:31:06;4.00;;;2.78;;
21780;SDS011;52576;53.614;9.894;2022-12-29T01:32:08;4.45;;;2.78;;
21780;SDS011;52576;53.614;9.894;2022-12-29T01:33:12;4.72;;;3.10;;
21780;SDS011;52576;53.614;9.894;2022-12-29T01:34:15;4.43;;;3.28;;
21780;SDS011;52576;53.614;9.894;2022-12-29T01:35:18;5.35;;;3.30;;
21780;SDS011;52576;53.614;9.894;2022-12-29T01:36:21;3.78;;;2.80;;
21780;SDS011;52576;53.614;9.894;2022-12-29T01:37:24;3.35;;;2.90;;
21780;SDS011;52576;53.614;9.894;2022-12-29T01:38:28;3.20;;;2.90;;
21780;SDS011;52576;53.614;9.894;2022-12-29T01:39:31;3.80;;;3.25;;
21780;SDS011;52576;53.614;9.894;2022-12-29T01:40:34;3.97;;;3.30;;
21780;SDS011;52576;53.614;9.894;2022-12-29T01:41:45;4.57;;;3.35;;
21780;SDS011;52576;53.614;9.894;2022-12-29T01:42:50;4.97;;;3.53;;
21780;SDS011;52576;53.614;9.894;2022-12-29T01:43:54;4.00;;;3.35;;
21780;SDS011;52576;53.614;9.894;2022-12-29T01:44:58;6.35;;;3.53;;
21780;SDS011;52576;53.614;9.894;2022-12-29T01:46:07;5.82;;;3.70;;
21780;SDS011;52576;53.614;9.894;2022-12-29T01:47:25;5.13;;;3.65;;
21780;SDS011;52576;53.614;9.894;2022-12-29T01:48:33;5.18;;;3.83;;
21780;SDS011;52576;53.614;9.894;2022-12-29T01:49:35;4.15;;;3.30;;
21780;SDS011;52576;53.614;9.894;2022-12-29T01:50:39;6.43;;;3.60;;
21780;SDS011;52576;53.614;9.894;2022-12-29T01:51:43;4.70;;;3.55;;
21780;SDS011;52576;53.614;9.894;2022-12-29T01:52:52;4.57;;;3.60;;
21780;SDS011;52576;53.614;9.894;2022-12-29T01:54:01;4.10;;;3.70;;
21780;SDS011;52576;53.614;9.894;2022-12-29T01:55:08;3.75;;;3.45;;
21780;SDS011;52576;53.614;9.894;2022-12-29T01:56:13;4.40;;;3.65;;
21780;SDS011;52576;53.614;9.894;2022-12-29T01:57:20;6.88;;;3.60;;
21780;SDS011;52576;53.614;9.894;2022-12-29T01:58:26;5.63;;;3.63;;
21780;SDS011;52576;53.614;9.894;2022-12-29T01:59:34;4.18;;;3.70;;
21780;SDS011;52576;53.614;9.894;2022-12-29T02:00:41;4.75;;;3.83;;
21780;SDS011;52576;53.614;9.894;2022-12-29T02:01:45;5.38;;;4.03;;
21780;SDS011;52576;53.614;9.894;2022-12-29T02:02:48;5.55;;;3.90;;
21780;SDS011;52576;53.614;9.894;2022-12-29T02:03:53;5.28;;;4.13;;
21780;SDS011;52576;53.614;9.894;2022-12-29T02:04:56;4.63;;;3.70;;
21780;SDS011;52576;53.614;9.894;2022-12-29T02:06:07;6.35;;;3.92;;
21780;SDS011;52576;53.614;9.894;2022-12-29T02:07:13;4.63;;;3.97;;
21780;SDS011;52576;53.614;9.894;2022-12-29T02:08:20;6.78;;;4.07;;
21780;SDS011;52576;53.614;9.894;2022-12-29T02:09:27;5.18;;;4.03;;
21780;SDS011;52576;53.614;9.894;2022-12-29T02:10:31;4.55;;;3.72;;
21780;SDS011;52576;53.614;9.894;2022-12-29T02:11:36;5.25;;;4.10;;
21780;SDS011;52576;53.614;9.894;2022-12-29T02:12:41;6.22;;;4.07;;
21780;SDS011;52576;53.614;9.894;2022-12-29T02:13:44;5.97;;;4.60;;
21780;SDS011;52576;53.614;9.894;2022-12-29T02:14:47;6.30;;;4.05;;
21780;SDS011;52576;53.614;9.894;2022-12-29T02:16:01;4.18;;;3.72;;
21780;SDS011;52576;53.614;9.894;2022-12-29T02:17:20;5.20;;;4.18;;
21780;SDS011;52576;53.614;9.894;2022-12-29T02:18:35;4.45;;;4.05;;
21780;SDS011;52576;53.614;9.894;2022-12-29T02:23:21;5.50;;;4.35;;
21780;SDS011;52576;53.614;9.894;2022-12-29T02:25:14;5.80;;;3.88;;
21780;SDS011;52576;53.614;9.894;2022-12-29T02:26:44;4.78;;;3.65;;
21780;SDS011;52576;53.614;9.894;2022-12-29T02:28:19;6.47;;;3.85;;
21780;SDS011;52576;53.614;9.894;2022-12-29T02:29:40;4.93;;;3.90;;
21780;SDS011;52576;53.614;9.894;2022-12-29T02:31:06;5.45;;;3.90;;
21780;SDS011;52576;53.614;9.894;2022-12-29T02:32:21;6.00;;;3.55;;
21780;SDS011;52576;53.614;9.894;2022-12-29T02:33:33;4.80;;;3.60;;
21780;SDS011;52576;53.614;9.894;2022-12-29T02:34:51;7.45;;;3.55;;
21780;SDS011;52576;53.614;9.894;2022-12-29T02:36:01;4.72;;;3.92;;
21780;SDS011;52576;53.614;9.894;2022-12-29T02:37:17;5.15;;;3.70;;
21780;SDS011;52576;53.614;9.894;2022-12-29T02:38:28;3.85;;;3.45;;
21780;SDS011;52576;53.614;9.894;2022-12-29T02:39:44;3.83;;;3.40;;
21780;SDS011;52576;53.614;9.894;2022-12-29T02:40:55;6.85;;;3.40;;
21780;SDS011;52576;53.614;9.894;2022-12-29T02:42:08;4.43;;;3.47;;
21780;SDS011;52576;53.614;9.894;2022-12-29T02:43:19;4.45;;;3.45;;
21780;SDS011;52576;53.614;9.894;2022-12-29T02:44:28;5.82;;;3.58;;
21780;SDS011;52576;53.614;9.894;2022-12-29T02:45:36;5.80;;;3.20;;
21780;SDS011;52576;53.614;9.894;2022-12-29T02:46:50;6.53;;;3.20;;
21780;SDS011;52576;53.614;9.894;2022-12-29T02:47:56;5.07;;;3.38;;
21780;SDS011;52576;53.614;9.894;2022-12-29T02:49:09;3.58;;;3.28;;
21780;SDS011;52576;53.614;9.894;2022-12-29T02:50:17;5.75;;;3.30;;
21780;SDS011;52576;53.614;9.894;2022-12-29T02:51:27;4.40;;;3.55;;
21780;SDS011;52576;53.614;9.894;2022-12-29T02:52:34;3.45;;;3.05;;
21780;SDS011;52576;53.614;9.894;2022-12-29T02:53:41;5.38;;;3.42;;
21780;SDS011;52576;53.614;9.894;2022-12-29T02:55:03;5.13;;;2.95;;
21780;SDS011;52576;53.614;9.894;2022-12-29T02:56:06;5.50;;;3.20;;
21780;SDS011;52576;53.614;9.894;2022-12-29T02:57:10;3.67;;;2.88;;
21780;SDS011;52576;53.614;9.894;2022-12-29T02:58:17;4.65;;;3.22;;
21780;SDS011;52576;53.614;9.894;2022-12-29T02:59:20;4.35;;;3.70;;
21780;SDS011;52576;53.614;9.894;2022-12-29T03:00:25;3.75;;;3.35;;
21780;SDS011;52576;53.614;9.894;2022-12-29T03:01:34;6.97;;;3.47;;
21780;SDS011;52576;53.614;9.894;2022-12-29T03:03:14;5.22;;;2.80;;
21780;SDS011;52576;53.614;9.894;2022-12-29T03:04:26;6.20;;;3.17;;
21780;SDS011;52576;53.614;9.894;2022-12-29T03:07:04;4.65;;;3.10;;
21780;SDS011;52576;53.614;9.894;2022-12-29T03:08:17;3.88;;;3.00;;
21780;SDS011;52576;53.614;9.894;2022-12-29T03:09:26;4.65;;;2.80;;
21780;SDS011;52576;53.614;9.894;2022-12-29T03:10:41;4.57;;;2.97;;
21780;SDS011;52576;53.614;9.894;2022-12-29T03:11:52;4.40;;;2.75;;
21780;SDS011;52576;53.614;9.894;2022-12-29T03:13:15;3.38;;;2.90;;
21780;SDS011;52576;53.614;9.894;2022-12-29T03:14:47;4.10;;;2.90;;
21780;SDS011;52576;53.614;9.894;2022-12-29T03:16:14;5.03;;;2.80;;
21780;SDS011;52576;53.614;9.894;2022-12-29T03:17:24;4.40;;;3.15;;
21780;SDS011;52576;53.614;9.894;2022-12-29T03:18:37;3.13;;;2.67;;
21780;SDS011;52576;53.614;9.894;2022-12-29T03:19:44;3.25;;;2.90;;
21780;SDS011;52576;53.614;9.894;2022-12-29T03:20:52;4.18;;;2.78;;
21780;SDS011;52576;53.614;9.894;2022-12-29T03:21:59;2.80;;;2.50;;
21780;SDS011;52576;53.614;9.894;2022-12-29T03:23:27;2.70;;;2.50;;
21780;SDS011;52576;53.614;9.894;2022-12-29T03:24:32;3.88;;;2.78;;
21780;SDS011;52576;53.614;9.894;2022-12-29T03:25:39;2.95;;;2.53;;
21780;SDS011;52576;53.614;9.894;2022-12-29T03:26:46;4.25;;;2.70;;
21780;SDS011;52576;53.614;9.894;2022-12-29T03:27:53;4.88;;;2.80;;
21780;SDS011;52576;53.614;9.894;2022-12-29T03:29:01;3.08;;;2.58;;
21780;SDS011;52576;53.614;9.894;2022-12-29T03:30:04;2.90;;;2.60;;
21780;SDS011;52576;53.614;9.894;2022-12-29T03:31:11;3.22;;;2.50;;
21780;SDS011;52576;53.614;9.894;2022-12-29T03:32:16;3.67;;;2.60;;
21780;SDS011;52576;53.614;9.894;2022-12-29T03:33:20;4.85;;;2.67;;
21780;SDS011;52576;53.614;9.894;2022-12-29T03:34:27;4.57;;;2.30;;
21780;SDS011;52576;53.614;9.894;2022-12-29T03:35:34;2.30;;;2.10;;
21780;SDS011;52576;53.614;9.894;2022-12-29T03:36:46;3.75;;;2.70;;
21780;SDS011;52576;53.614;9.894;2022-12-29T03:37:55;3.65;;;2.60;;
21780;SDS011;52576;53.614;9.894;2022-12-29T03:39:02;3.30;;;2.45;;
21780;SDS011;52576;53.614;9.894;2022-12-29T03:40:10;5.13;;;2.50;;
21780;SDS011;52576;53.614;9.894;2022-12-29T03:41:16;5.95;;;2.22;;
21780;SDS011;52576;53.614;9.894;2022-12-29T03:42:21;3.35;;;2.35;;
21780;SDS011;52576;53.614;9.894;2022-12-29T03:43:28;3.75;;;2.28;;
21780;SDS011;52576;53.614;9.894;2022-12-29T03:44:31;4.18;;;2.60;;
21780;SDS011;52576;53.614;9.894;2022-12-29T03:45:36;2.47;;;2.15;;
21780;SDS011;52576;53.614;9.894;2022-12-29T03:46:39;3.45;;;2.40;;
21780;SDS011;52576;53.614;9.894;2022-12-29T03:47:42;3.28;;;2.65;;
21780;SDS011;52576;53.614;9.894;2022-12-29T03:48:46;2.50;;;2.13;;
21780;SDS011;52576;53.614;9.894;2022-12-29T03:49:51;3.78;;;2.28;;
21780;SDS011;52576;53.614;9.894;2022-12-29T03:50:53;3.17;;;2.58;;
21780;SDS011;52576;53.614;9.894;2022-12-29T03:51:57;3.30;;;2.03;;
21780;SDS011;52576;53.614;9.894;2022-12-29T03:53:00;2.78;;;2.05;;
21780;SDS011;52576;53.614;9.894;2022-12-29T03:54:04;2.88;;;2.40;;
21780;SDS011;52576;53.614;9.894;2022-12-29T03:55:07;3.25;;;2.10;;
21780;SDS011;52576;53.614;9.894;2022-12-29T03:56:12;4.43;;;2.20;;
21780;SDS011;52576;53.614;9.894;2022-12-29T03:57:15;6.10;;;2.45;;
21780;SDS011;52576;53.614;9.894;2022-12-29T03:58:29;4.28;;;2.22;;
21780;SDS011;52576;53.614;9.894;2022-12-29T03:59:40;3.08;;;2.22;;
21780;SDS011;52576;53.614;9.894;2022-12-29T04:00:43;3.30;;;2.20;;
21780;SDS011;52576;53.614;9.894;2022-12-29T04:01:46;3.42;;;2.10;;
21780;SDS011;52576;53.614;9.894;2022-12-29T04:02:49;2.50;;;2.20;;
21780;SDS011;52576;53.614;9.894;2022-12-29T04:03:55;3.70;;;2.40;;
21780;SDS011;52576;53.614;9.894;2022-12-29T04:04:59;3.78;;;2.08;;
21780;SDS011;52576;53.614;9.894;2022-12-29T04:06:02;3.58;;;2.15;;
21780;SDS011;52576;53.614;9.894;2022-12-29T04:07:14;2.63;;;2.38;;
21780;SDS011;52576;53.614;9.894;2022-12-29T04:08:16;3.45;;;2.20;;
21780;SDS011;52576;53.614;9.894;2022-12-29T04:09:20;2.92;;;2.15;;
21780;SDS011;52576;53.614;9.894;2022-12-29T04:10:23;2.42;;;2.00;;
21780;SDS011;52576;53.614;9.894;2022-12-29T04:11:31;2.95;;;2.03;;
21780;SDS011;52576;53.614;9.894;2022-12-29T04:12:37;4.30;;;2.33;;
21780;SDS011;52576;53.614;9.894;2022-12-29T04:13:40;2.75;;;1.90;;
21780;SDS011;52576;53.614;9.894;2022-12-29T04:14:44;2.80;;;2.00;;
21780;SDS011;52576;53.614;9.894;2022-12-29T04:15:47;2.35;;;1.90;;
21780;SDS011;52576;53.614;9.894;2022-12-29T04:16:51;3.38;;;1.98;;
21780;SDS011;52576;53.614;9.894;2022-12-29T04:17:54;2.90;;;1.90;;
21780;SDS011;52576;53.614;9.894;2022-12-29T04:18:56;2.30;;;1.88;;
21780;SDS011;52576;53.614;9.894;2022-12-29T04:20:01;3.17;;;1.77;;
21780;SDS011;52576;53.614;9.894;2022-12-29T04:21:18;2.33;;;1.63;;
21780;SDS011;52576;53.614;9.894;2022-12-29T04:22:22;4.20;;;1.80;;
21780;SDS011;52576;53.614;9.894;2022-12-29T04:23:24;3.90;;;1.60;;
21780;SDS011;52576;53.614;9.894;2022-12-29T04:24:27;2.00;;;1.80;;
21780;SDS011;52576;53.614;9.894;2022-12-29T04:25:30;2.30;;;1.83;;
21780;SDS011;52576;53.614;9.894;2022-12-29T04:26:35;3.60;;;1.90;;
21780;SDS011;52576;53.614;9.894;2022-12-29T04:28:04;2.20;;;1.70;;
21780;SDS011;52576;53.614;9.894;2022-12-29T04:29:21;2.00;;;1.80;;
21780;SDS011;52576;53.614;9.894;2022-12-29T04:30:57;2.08;;;1.55;;
21780;SDS011;52576;53.614;9.894;2022-12-29T04:32:06;2.40;;;1.60;;
21780;SDS011;52576;53.614;9.894;2022-12-29T04:33:13;1.50;;;1.40;;
21780;SDS011;52576;53.614;9.894;2022-12-29T04:34:19;2.42;;;1.50;;
21780;SDS011;52576;53.614;9.894;2022-12-29T04:35:23;2.25;;;1.50;;
21780;SDS011;52576;53.614;9.894;2022-12-29T04:36:27;2.30;;;1.60;;
21780;SDS011;52576;53.614;9.894;2022-12-29T04:37:31;3.00;;;1.52;;
21780;SDS011;52576;53.614;9.894;2022-12-29T04:38:34;1.40;;;1.30;;
21780;SDS011;52576;53.614;9.894;2022-12-29T04:39:39;2.38;;;1.48;;
21780;SDS011;52576;53.614;9.894;2022-12-29T04:40:42;1.52;;;1.40;;
21780;SDS011;52576;53.614;9.894;2022-12-29T04:41:46;1.40;;;1.25;;
21780;SDS011;52576;53.614;9.894;2022-12-29T04:42:52;3.70;;;1.50;;
21780;SDS011;52576;53.614;9.894;2022-12-29T04:43:56;2.00;;;1.33;;
21780;SDS011;52576;53.614;9.894;2022-12-29T04:45:17;2.20;;;1.40;;
21780;SDS011;52576;53.614;9.894;2022-12-29T04:46:46;1.55;;;1.38;;
21780;SDS011;52576;53.614;9.894;2022-12-29T04:48:06;1.90;;;1.38;;
21780;SDS011;52576;53.614;9.894;2022-12-29T04:49:18;2.90;;;1.73;;
21780;SDS011;52576;53.614;9.894;2022-12-29T04:50:37;1.63;;;1.10;;
21780;SDS011;52576;53.614;9.894;2022-12-29T04:51:51;1.20;;;1.10;;
21780;SDS011;52576;53.614;9.894;2022-12-29T04:52:54;1.30;;;1.20;;
21780;SDS011;52576;53.614;9.894;2022-12-29T04:53:58;1.92;;;1.23;;
21780;SDS011;52576;53.614;9.894;2022-12-29T04:55:01;2.42;;;1.30;;
21780;SDS011;52576;53.614;9.894;2022-12-29T04:56:05;2.92;;;1.40;;
21780;SDS011;52576;53.614;9.894;2022-12-29T04:57:08;2.67;;;1.40;;
21780;SDS011;52576;53.614;9.894;2022-12-29T04:58:13;3.35;;;1.40;;
21780;SDS011;52576;53.614;9.894;2022-12-29T04:59:23;1.70;;;1.17;;
21780;SDS011;52576;53.614;9.894;2022-12-29T05:00:30;1.48;;;1.20;;
21780;SDS011;52576;53.614;9.894;2022-12-29T05:01:32;2.15;;;1.40;;
21780;SDS011;52576;53.614;9.894;2022-12-29T05:02:36;3.53;;;1.42;;
21780;SDS011;52576;53.614;9.894;2022-12-29T05:03:39;2.05;;;1.20;;
21780;SDS011;52576;53.614;9.894;2022-12-29T05:04:42;3.17;;;1.20;;
21780;SDS011;52576;53.614;9.894;2022-12-29T05:05:46;2.10;;;1.25;;
21780;SDS011;52576;53.614;9.894;2022-12-29T05:06:49;3.00;;;1.23;;
21780;SDS011;52576;53.614;9.894;2022-12-29T05:07:52;4.53;;;2.00;;
21780;SDS011;52576;53.614;9.894;2022-12-29T05:08:55;1.75;;;1.20;;
21780;SDS011;52576;53.614;9.894;2022-12-29T05:09:58;1.92;;;1.40;;
21780;SDS011;52576;53.614;9.894;2022-12-29T05:11:01;1.67;;;1.38;;
21780;SDS011;52576;53.614;9.894;2022-12-29T05:12:04;2.78;;;1.50;;
21780;SDS011;52576;53.614;9.894;2022-12-29T05:13:08;2.47;;;1.38;;
21780;SDS011;52576;53.614;9.894;2022-12-29T05:14:12;1.52;;;1.40;;
21780;SDS011;52576;53.614;9.894;2022-12-29T05:15:15;1.33;;;1.23;;
21780;SDS011;52576;53.614;9.894;2022-12-29T05:16:19;1.90;;;1.27;;
21780;SDS011;52576;53.614;9.894;2022-12-29T05:17:21;1.60;;;1.40;;
21780;SDS011;52576;53.614;9.894;2022-12-29T05:18:24;3.75;;;1.40;;
21780;SDS011;52576;53.614;9.894;2022-12-29T05:19:28;3.33;;;1.33;;
21780;SDS011;52576;53.614;9.894;2022-12-29T05:20:31;1.50;;;1.40;;
21780;SDS011;52576;53.614;9.894;2022-12-29T05:21:34;1.80;;;1.38;;
21780;SDS011;52576;53.614;9.894;2022-12-29T05:22:38;1.38;;;1.27;;
21780;SDS011;52576;53.614;9.894;2022-12-29T05:23:40;1.48;;;1.38;;
21780;SDS011;52576;53.614;9.894;2022-12-29T05:24:43;2.22;;;1.50;;
21780;SDS011;52576;53.614;9.894;2022-12-29T05:25:46;2.10;;;1.60;;
21780;SDS011;52576;53.614;9.894;2022-12-29T05:27:02;3.40;;;1.40;;
21780;SDS011;52576;53.614;9.894;2022-12-29T05:28:12;2.45;;;1.60;;
21780;SDS011;52576;53.614;9.894;2022-12-29T05:29:31;2.40;;;1.52;;
21780;SDS011;52576;53.614;9.894;2022-12-29T05:30:33;2.70;;;1.42;;
21780;SDS011;52576;53.614;9.894;2022-12-29T05:31:36;1.83;;;1.60;;
21780;SDS011;52576;53.614;9.894;2022-12-29T05:32:40;2.42;;;1.40;;
21780;SDS011;52576;53.614;9.894;2022-12-29T05:33:43;2.05;;;1.70;;
21780;SDS011;52576;53.614;9.894;2022-12-29T05:34:46;3.38;;;1.60;;
21780;SDS011;52576;53.614;9.894;2022-12-29T05:35:51;2.20;;;1.80;;
21780;SDS011;52576;53.614;9.894;2022-12-29T05:36:56;2.33;;;1.73;;
21780;SDS011;52576;53.614;9.894;2022-12-29T05:37:59;2.65;;;1.88;;
21780;SDS011;52576;53.614;9.894;2022-12-29T05:39:02;2.55;;;2.00;;
21780;SDS011;52576;53.614;9.894;2022-12-29T05:40:06;2.90;;;1.98;;
21780;SDS011;52576;53.614;9.894;2022-12-29T05:41:09;4.22;;;2.20;;
21780;SDS011;52576;53.614;9.894;2022-12-29T05:42:21;2.10;;;1.90;;
21780;SDS011;52576;53.614;9.894;2022-12-29T05:43:47;2.40;;;1.90;;
21780;SDS011;52576;53.614;9.894;2022-12-29T05:45:16;4.70;;;1.88;;
21780;SDS011;52576;53.614;9.894;2022-12-29T05:46:39;2.95;;;1.90;;
21780;SDS011;52576;53.614;9.894;2022-12-29T05:47:42;2.63;;;2.08;;
21780;SDS011;52576;53.614;9.894;2022-12-29T05:49:14;3.50;;;2.03;;
21780;SDS011;52576;53.614;9.894;2022-12-29T05:50:29;2.72;;;2.00;;
21780;SDS011;52576;53.614;9.894;2022-12-29T05:51:45;4.07;;;1.80;;
21780;SDS011;52576;53.614;9.894;2022-12-29T05:52:50;4.43;;;2.13;;
21780;SDS011;52576;53.614;9.894;2022-12-29T05:53:53;2.67;;;1.60;;
21780;SDS011;52576;53.614;9.894;2022-12-29T05:54:57;2.45;;;1.80;;
21780;SDS011;52576;53.614;9.894;2022-12-29T05:56:01;3.67;;;2.00;;
21780;SDS011;52576;53.614;9.894;2022-12-29T05:57:04;2.42;;;1.75;;
21780;SDS011;52576;53.614;9.894;2022-12-29T05:58:08;3.20;;;1.98;;
21780;SDS011;52576;53.614;9.894;2022-12-29T05:59:11;2.72;;;1.90;;
21780;SDS011;52576;53.614;9.894;2022-12-29T06:00:14;2.03;;;1.70;;
21780;SDS011;52576;53.614;9.894;2022-12-29T06:01:20;3.40;;;1.67;;
21780;SDS011;52576;53.614;9.894;2022-12-29T06:02:23;2.47;;;1.67;;
21780;SDS011;52576;53.614;9.894;2022-12-29T06:03:26;2.53;;;1.85;;
21780;SDS011;52576;53.614;9.894;2022-12-29T06:04:29;3.70;;;1.60;;
21780;SDS011;52576;53.614;9.894;2022-12-29T06:05:32;1.75;;;1.65;;
21780;SDS011;52576;53.614;9.894;2022-12-29T06:06:34;4.10;;;1.70;;
21780;SDS011;52576;53.614;9.894;2022-12-29T06:07:38;3.35;;;1.70;;
21780;SDS011;52576;53.614;9.894;2022-12-29T06:08:41;3.75;;;1.70;;
21780;SDS011;52576;53.614;9.894;2022-12-29T06:09:45;2.85;;;1.40;;
21780;SDS011;52576;53.614;9.894;2022-12-29T06:10:47;4.93;;;1.30;;
21780;SDS011;52576;53.614;9.894;2022-12-29T06:11:51;1.85;;;1.60;;
21780;SDS011;52576;53.614;9.894;2022-12-29T06:12:53;2.28;;;1.25;;
21780;SDS011;52576;53.614;9.894;2022-12-29T06:13:56;2.28;;;1.40;;
21780;SDS011;52576;53.614;9.894;2022-12-29T06:14:58;4.43;;;1.40;;
21780;SDS011;52576;53.614;9.894;2022-12-29T06:16:02;2.40;;;1.40;;
21780;SDS011;52576;53.614;9.894;2022-12-29T06:17:04;2.90;;;1.67;;
21780;SDS011;52576;53.614;9.894;2022-12-29T06:18:08;3.60;;;1.25;;
21780;SDS011;52576;53.614;9.894;2022-12-29T06:19:20;1.77;;;1.25;;
21780;SDS011;52576;53.614;9.894;2022-12-29T06:20:23;2.78;;;1.20;;
21780;SDS011;52576;53.614;9.894;2022-12-29T06:21:26;2.33;;;1.40;;
21780;SDS011;52576;53.614;9.894;2022-12-29T06:22:29;3.45;;;1.20;;
21780;SDS011;52576;53.614;9.894;2022-12-29T06:23:31;1.67;;;1.40;;
21780;SDS011;52576;53.614;9.894;2022-12-29T06:24:36;1.60;;;1.30;;
21780;SDS011;52576;53.614;9.894;2022-12-29T06:25:39;2.70;;;1.35;;
21780;SDS011;52576;53.614;9.894;2022-12-29T06:26:41;1.80;;;1.25;;
21780;SDS011;52576;53.614;9.894;2022-12-29T06:27:45;4.40;;;1.40;;
21780;SDS011;52576;53.614;9.894;2022-12-29T06:28:47;2.28;;;1.50;;
21780;SDS011;52576;53.614;9.894;2022-12-29T06:29:50;5.15;;;1.20;;
21780;SDS011;52576;53.614;9.894;2022-12-29T06:30:52;1.40;;;1.20;;
21780;SDS011;52576;53.614;9.894;2022-12-29T06:31:56;1.33;;;1.23;;
21780;SDS011;52576;53.614;9.894;2022-12-29T06:33:00;2.00;;;1.20;;
21780;SDS011;52576;53.614;9.894;2022-12-29T06:34:03;1.50;;;1.00;;
21780;SDS011;52576;53.614;9.894;2022-12-29T06:35:10;2.53;;;1.10;;
21780;SDS011;52576;53.614;9.894;2022-12-29T06:36:18;1.85;;;1.27;;
21780;SDS011;52576;53.614;9.894;2022-12-29T06:37:21;2.03;;;0.90;;
21780;SDS011;52576;53.614;9.894;2022-12-29T06:38:24;3.25;;;1.30;;
21780;SDS011;52576;53.614;9.894;2022-12-29T06:39:26;2.45;;;1.20;;
21780;SDS011;52576;53.614;9.894;2022-12-29T06:40:43;2.83;;;1.30;;
21780;SDS011;52576;53.614;9.894;2022-12-29T06:42:09;1.40;;;1.10;;
21780;SDS011;52576;53.614;9.894;2022-12-29T06:43:42;2.75;;;1.30;;
21780;SDS011;52576;53.614;9.894;2022-12-29T06:45:19;1.92;;;1.42;;
21780;SDS011;52576;53.614;9.894;2022-12-29T06:46:22;2.28;;;1.20;;
21780;SDS011;52576;53.614;9.894;2022-12-29T06:47:25;2.40;;;1.23;;
21780;SDS011;52576;53.614;9.894;2022-12-29T06:48:27;1.90;;;1.20;;
21780;SDS011;52576;53.614;9.894;2022-12-29T06:49:30;2.47;;;1.30;;
21780;SDS011;52576;53.614;9.894;2022-12-29T06:50:33;1.70;;;1.33;;
21780;SDS011;52576;53.614;9.894;2022-12-29T06:51:36;2.05;;;1.10;;
21780;SDS011;52576;53.614;9.894;2022-12-29T06:52:38;1.95;;;1.40;;
21780;SDS011;52576;53.614;9.894;2022-12-29T06:53:41;2.30;;;1.50;;
21780;SDS011;52576;53.614;9.894;2022-12-29T06:54:43;1.63;;;1.30;;